Latest Weather Observations for Sheoaks

IDV60901

Issued at 8:35 pm EST Tuesday 29 July 2014 (issued every 10 minutes, with the page automatically refreshed every 10 minutes)

About weather observations | Map of Melbourne area stations | Latest observations for Melbourne area | Other Formats
Station Details ID: 087168 Name: SHEOAKS Lat: -37.91 Lon: 144.13 Height: 236.7 m
Data from the previous 72 hours. | See also: Recent months at Sheoaks
Date/Time
EST
Tmp

°C
App
Tmp
°C
Dew
Point
°C
Rel
Hum
%
Delta-T

°C
Wind Press
QNH
hPa
Press
MSL
hPa
Rain
since
9 am
mm
Dir
 
Spd
km/h
Gust
km/h
Spd
kts
Gust
kts
29/08:34pm 13.5 7.8 9.9 79 1.9 NW 30 48 16 26 1008.7 - 0.6
29/08:30pm 13.5 7.4 9.9 79 1.9 NW 32 48 17 26 1008.7 - 0.6
29/08:21pm 13.6 8.3 10.0 79 1.9 NW 28 48 15 26 1008.5 - 0.6
29/08:00pm 13.0 7.8 10.4 84 1.4 NW 28 43 15 23 1008.6 1008.9 0.6
29/07:30pm 13.7 8.0 9.9 78 2.0 NW 30 43 16 23 1008.8 - 0.6
29/07:00pm 13.1 8.4 10.5 84 1.4 NW 26 46 14 25 1008.2 1008.5 0.6
29/06:30pm 13.3 7.7 10.3 82 1.6 NW 30 48 16 26 1007.8 - 0.6
29/06:04pm 13.2 7.6 10.0 81 1.7 NW 30 48 16 26 1007.7 - 0.6
29/06:00pm 13.2 7.6 10.0 81 1.7 NW 30 44 16 24 1007.6 1007.9 0.6
29/05:48pm 13.3 8.1 10.1 81 1.7 NW 28 48 15 26 1007.4 - 0.6
29/05:30pm 13.1 8.3 10.3 83 1.5 NW 26 44 14 24 1007.5 - 0.6
29/05:02pm 13.3 8.1 10.1 81 1.7 NW 28 54 15 29 1007.0 - 0.6
29/05:00pm 13.2 8.4 10.2 82 1.6 NW 26 46 14 25 1007.0 1007.4 0.6
29/04:53pm 13.0 7.8 10.4 84 1.4 NW 28 46 15 25 1006.8 - 0.6
29/04:30pm 12.2 7.3 11.3 94 0.5 NW 28 43 15 23 1007.0 - 0.6
29/04:03pm 12.5 6.2 10.9 90 0.8 NW 35 56 19 30 1007.2 - 0.0
29/04:00pm 12.6 5.8 10.7 88 1.0 NW 37 56 20 30 1006.7 1007.1 0.0
29/03:30pm 14.0 7.6 9.4 74 2.4 NW 33 59 18 32 1005.7 - 0.0
29/03:01pm 14.1 8.2 9.1 72 2.6 NW 30 48 16 26 1005.9 - 0.0
29/03:00pm 14.0 8.1 9.2 73 2.5 NW 30 46 16 25 1005.9 1006.2 0.0
29/02:30pm 13.7 6.9 9.4 75 2.2 NW 35 61 19 33 1005.8 - 0.0
29/02:00pm 14.2 7.0 9.0 71 2.7 NW 37 65 20 35 1005.6 1005.9 0.0
29/01:30pm 13.8 6.9 8.8 72 2.6 NW 35 56 19 30 1005.4 - 0.0
29/01:00pm 13.5 5.8 8.6 72 2.5 NW 39 63 21 34 1005.9 1006.2 0.0
29/12:30pm 13.5 5.7 8.4 71 2.6 NW 39 67 21 36 1006.2 - 0.0
29/12:00pm 13.1 5.7 8.4 73 2.4 NW 37 61 20 33 1006.6 1007.0 0.0
29/11:30am 13.1 5.3 8.2 72 2.5 NW 39 59 21 32 1006.8 - 0.0
29/11:00am 13.0 6.0 8.3 73 2.4 NW 35 61 19 33 1006.7 1007.1 0.0
29/10:30am 13.4 6.4 8.3 71 2.6 NW 35 56 19 30 1006.9 - 0.0
29/10:00am 13.1 6.3 7.8 70 2.6 NW 33 59 18 32 1007.0 1007.4 0.0
29/09:30am 12.4 5.2 7.5 72 2.4 NW 35 67 19 36 1006.6 - 0.0
29/09:00am 12.1 4.8 7.2 72 2.4 NW 35 56 19 30 1006.9 1007.3 0.0
29/08:30am 11.8 4.4 6.9 72 2.4 NW 35 59 19 32 1006.9 - 0.0
29/08:00am 11.2 4.4 6.7 74 2.2 NW 32 57 17 31 1007.3 1007.6 0.0
29/07:34am 10.9 4.0 6.6 75 2.1 NW 32 52 17 28 1007.5 - 0.0
29/07:30am 11.0 4.1 6.6 74 2.1 NW 32 50 17 27 1007.5 - 0.0
29/07:00am 10.9 4.0 6.6 75 2.1 NNW 32 52 17 28 1007.7 1008.0 0.0
29/06:38am 11.2 5.1 6.7 74 2.2 NNW 28 48 15 26 1007.8 - 0.0
29/06:30am 11.1 5.0 6.6 74 2.2 NNW 28 46 15 25 1007.9 - 0.0
29/06:12am 11.1 5.0 6.6 74 2.2 NNW 28 48 15 26 1007.9 - 0.0
29/06:00am 11.0 4.9 6.7 75 2.1 NNW 28 44 15 24 1008.0 1008.3 0.0
29/05:30am 10.8 4.7 6.6 75 2.0 NNW 28 41 15 22 1007.9 - 0.0
29/05:18am 10.8 4.7 6.6 75 2.0 NNW 28 48 15 26 1007.8 - 0.0
29/05:00am 11.2 5.1 6.7 74 2.2 NNW 28 44 15 24 1007.9 1008.2 0.0
29/04:30am 11.2 5.1 6.7 74 2.2 NNW 28 46 15 25 1007.6 - 0.0
29/04:00am 11.1 4.7 6.8 75 2.1 NNW 30 48 16 26 1007.9 1008.2 0.0
29/03:30am 11.1 4.7 7.0 76 2.0 NW 30 50 16 27 1008.0 - 0.0
29/03:06am 10.9 4.9 7.0 77 1.9 NW 28 46 15 25 1008.1 - 0.0
29/03:00am 10.9 4.5 7.0 77 1.9 NW 30 46 16 25 1008.2 1008.5 0.0
29/02:52am 11.0 5.0 6.9 76 2.0 NW 28 48 15 26 1008.2 - 0.0
29/02:30am 11.2 5.2 6.9 75 2.1 NW 28 43 15 23 1008.5 - 0.0
29/02:00am 11.2 5.5 6.9 75 2.1 NNW 26 39 14 21 1008.7 1009.0 0.0
29/01:30am 10.8 4.8 6.9 77 1.9 NNW 28 43 15 23 1009.2 - 0.0
29/01:00am 10.7 5.4 6.6 76 2.0 NNW 24 39 13 21 1009.8 1010.2 0.0
29/12:30am 11.0 5.6 6.4 73 2.2 NNW 24 37 13 20 1010.0 - 0.0
29/12:00am 11.2 5.4 6.3 72 2.3 NNW 26 39 14 21 1010.2 1010.6 0.0
 
Date/Time
EST
Tmp

°C
App
Tmp
°C
Dew
Point
°C
Rel
Hum
%
Delta-T

°C
Wind Press
QNH
hPa
Press
MSL
hPa
Rain
since
9 am
mm
Dir
 
Spd
km/h
Gust
km/h
Spd
kts
Gust
kts
28/11:30pm 11.2 6.2 6.5 73 2.2 NNW 22 35 12 19 1010.9 - 0.0
28/11:00pm 11.4 6.9 6.1 70 2.5 NW 19 33 10 18 1011.4 1011.8 0.0
28/10:30pm 11.8 6.8 6.3 69 2.6 NNW 22 35 12 19 1011.7 - 0.0
28/10:00pm 11.8 7.2 6.3 69 2.6 NNW 20 35 11 19 1011.7 1012.0 0.0
28/09:30pm 12.3 6.6 6.8 69 2.7 NNW 26 37 14 20 1011.4 - 0.0
28/09:00pm 12.2 7.7 6.9 70 2.6 NNW 20 39 11 21 1011.4 1011.8 0.0
28/08:30pm 12.2 7.7 6.9 70 2.6 NNW 20 30 11 16 1011.6 - 0.0
28/08:00pm 12.5 8.0 7.0 69 2.7 NNW 20 33 11 18 1011.4 1011.8 0.0
28/07:30pm 12.4 8.0 6.7 68 2.8 NNW 19 33 10 18 1011.7 - 0.0
28/07:00pm 12.6 8.1 6.9 68 2.8 NNW 20 32 11 17 1011.2 1011.6 0.0
28/06:30pm 12.5 8.1 7.4 71 2.5 NNW 20 33 11 18 1011.2 - 0.0
28/06:00pm 12.8 8.6 7.3 69 2.7 NNW 19 30 10 16 1011.0 1011.4 0.0
28/05:30pm 13.5 8.6 6.8 64 3.3 NNW 22 35 12 19 1011.1 - 0.0
28/05:00pm 13.9 9.0 6.7 62 3.5 NW 22 37 12 20 1011.4 1011.8 0.0
28/04:30pm 14.6 9.3 6.7 59 3.9 NW 24 44 13 24 1012.0 - 0.0
28/04:00pm 14.8 9.6 7.4 61 3.7 WNW 24 44 13 24 1011.9 1012.2 0.0
28/03:30pm 15.4 10.7 7.9 61 3.8 NW 22 41 12 22 1011.8 - 0.0
28/03:00pm 15.2 10.2 8.0 62 3.7 NW 24 39 13 21 1011.8 1012.1 0.0
28/02:53pm 14.7 8.8 7.7 63 3.5 NW 28 46 15 25 1011.7 - 0.0
28/02:30pm 14.6 8.7 7.6 63 3.5 NW 28 43 15 23 1011.2 - 0.0
28/02:00pm 14.4 8.5 7.5 63 3.4 NW 28 44 15 24 1011.9 1012.2 0.0
28/01:30pm 14.9 9.4 7.7 62 3.6 NW 26 41 14 22 1012.2 - 0.0
28/01:00pm 14.9 9.4 7.7 62 3.6 NNW 26 44 14 24 1012.7 1013.0 0.0
28/12:30pm 15.2 10.4 7.5 60 3.9 NW 22 37 12 20 1013.3 - 0.0
28/12:00pm 15.0 10.5 6.8 58 4.1 NW 20 35 11 19 1013.7 1014.1 0.0
28/11:30am 15.0 10.0 6.6 57 4.1 NW 22 35 12 19 1014.0 - 0.0
28/11:00am 14.7 8.8 5.8 55 4.3 NNW 26 43 14 23 1014.2 1014.6 0.0
28/10:30am 14.7 10.5 5.8 55 4.3 NW 17 30 9 16 1014.4 - 0.0
28/10:00am 14.2 9.4 5.6 56 4.1 NW 20 30 11 16 1014.4 1014.8 0.0
28/09:30am 12.8 8.1 5.2 60 3.6 NNW 19 28 10 15 1014.3 - 0.0
28/09:00am 11.4 6.3 4.2 61 3.3 NNW 20 30 11 16 1014.4 1014.8 0.0
28/08:30am 10.7 6.2 4.0 63 3.0 NNW 17 26 9 14 1014.5 - 0.0
28/08:00am 9.8 6.0 3.8 66 2.7 N 13 19 7 10 1014.6 1015.0 0.0
28/07:30am 9.4 5.1 3.4 66 2.6 N 15 20 8 11 1014.6 - 0.0
28/07:00am 9.8 5.2 3.5 65 2.8 N 17 26 9 14 1014.5 1014.9 0.0
28/06:30am 9.8 5.2 3.5 65 2.8 NNW 17 26 9 14 1014.5 - 0.0
28/06:00am 9.9 4.7 3.6 65 2.8 N 20 33 11 18 1014.3 1014.7 0.0
28/05:30am 10.2 4.3 3.7 64 2.9 NNW 24 33 13 18 1014.5 - 0.0
28/05:00am 10.2 3.9 3.9 65 2.8 N 26 46 14 25 1014.5 1014.9 0.0
28/04:30am 10.1 4.7 4.3 67 2.6 N 22 35 12 19 1015.1 - 0.0
28/04:00am 9.9 5.1 4.5 69 2.4 NNW 19 30 10 16 1015.2 1015.6 0.0
28/03:30am 10.2 4.4 4.6 68 2.5 N 24 33 13 18 1015.2 - 0.0
28/03:00am 10.6 3.7 4.5 66 2.8 NNW 30 44 16 24 1015.1 1015.5 0.0
28/02:34am 11.0 4.1 4.5 64 3.0 NNW 30 50 16 27 1015.2 - 0.0
28/02:30am 11.0 4.1 4.5 64 3.0 NNW 30 46 16 25 1015.3 - 0.0
28/02:00am 11.2 5.1 4.7 64 3.0 NNW 26 37 14 20 1016.0 1016.3 0.0
28/01:30am 11.1 5.4 5.0 66 2.8 NNW 24 39 13 21 1016.3 - 0.0
28/01:00am 11.1 5.8 5.0 66 2.8 NNW 22 33 12 18 1016.4 1016.7 0.0
28/12:30am 11.3 6.0 5.0 65 2.9 NNW 22 35 12 19 1016.7 - 0.0
28/12:00am 11.4 5.8 5.3 66 2.8 NNW 24 37 13 20 1017.0 1017.4 0.0
 
Date/Time
EST
Tmp

°C
App
Tmp
°C
Dew
Point
°C
Rel
Hum
%
Delta-T

°C
Wind Press
QNH
hPa
Press
MSL
hPa
Rain
since
9 am
mm
Dir
 
Spd
km/h
Gust
km/h
Spd
kts
Gust
kts
27/11:30pm 11.2 6.0 5.5 68 2.7 NNW 22 35 12 19 1017.6 - 0.0
27/11:00pm 11.4 5.5 5.7 68 2.7 NNW 26 41 14 22 1017.4 1017.8 0.0
27/10:30pm 11.2 6.7 5.9 70 2.5 NNW 19 32 10 17 1018.2 - 0.0
27/10:00pm 10.9 6.9 6.5 74 2.1 NNW 17 24 9 13 1018.7 1019.1 0.0
27/09:30pm 10.9 6.9 6.6 75 2.1 NNW 17 26 9 14 1019.0 - 0.0
27/09:00pm 10.9 7.3 6.6 75 2.0 NNW 15 24 8 13 1019.1 1019.5 0.0
27/08:30pm 11.2 7.6 6.9 75 2.1 NNW 15 22 8 12 1019.2 - 0.0
27/08:00pm 10.8 7.2 6.9 77 1.9 NNW 15 22 8 12 1019.4 1019.8 0.0
27/07:30pm 10.8 7.7 7.1 78 1.8 N 13 20 7 11 1019.7 - 0.0
27/07:00pm 10.7 8.0 7.2 79 1.7 N 11 17 6 9 1019.9 1020.3 0.0
27/06:30pm 10.9 8.6 7.4 79 1.7 NNW 9 13 5 7 1019.8 - 0.0
27/06:00pm 11.2 9.4 7.1 76 2.0 NW 6 7 3 4 1019.7 1020.1 0.0
27/05:30pm 11.9 10.0 7.4 74 2.2 WNW 7 15 4 8 1019.2 - 0.0
27/05:00pm 12.4 9.3 7.3 71 2.5 NNW 13 20 7 11 1019.1 1019.5 0.0
27/04:30pm 12.6 7.9 7.9 73 2.3 N 22 37 12 20 1018.9 - 0.0
27/04:00pm 12.7 8.6 8.0 73 2.3 NNW 19 32 10 17 1019.6 1020.0 0.0
27/03:30pm 13.1 9.4 8.0 71 2.5 NNW 17 26 9 14 1019.8 - 0.0
27/03:00pm 12.7 9.7 7.6 71 2.5 NNW 13 22 7 12 1020.1 1020.5 0.0
27/02:30pm 12.9 9.1 7.4 69 2.7 NW 17 24 9 13 1020.0 - 0.0
27/02:00pm 12.6 7.4 7.3 70 2.6 NW 24 35 13 19 1020.0 1020.4 0.0
27/01:30pm 12.9 8.4 7.1 68 2.8 NW 20 32 11 17 1020.5 - 0.0
27/01:00pm 12.9 6.0 6.3 64 3.2 NW 32 46 17 25 1020.9 1021.3 0.0
27/12:39pm 13.3 6.7 5.9 61 3.5 NW 30 50 16 27 1021.0 - 0.0
27/12:30pm 13.2 7.4 6.3 63 3.3 NW 26 41 14 22 1021.2 - 0.0
27/12:00pm 13.2 7.5 6.8 65 3.1 NNW 26 39 14 21 1021.4 1021.8 0.0
27/11:30am 12.8 7.5 7.0 68 2.8 NNW 24 37 13 20 1022.1 - 0.0
27/11:00am 12.8 6.5 7.3 69 2.7 NW 30 50 16 27 1022.3 1022.7 0.0
27/10:47am 12.4 6.4 7.1 70 2.6 NW 28 48 15 26 1022.8 - 0.0
27/10:30am 12.6 7.1 7.7 72 2.4 NW 26 44 14 24 1022.8 - 0.0
27/10:00am 12.3 8.7 8.2 76 2.0 NNW 17 26 9 14 1023.1 1023.5 0.0
27/09:30am 10.8 7.4 7.7 81 1.5 NNW 15 22 8 12 1023.6 - 0.0
27/09:00am 9.2 6.0 6.8 85 1.1 NNW 13 20 7 11 1023.8 1024.2 0.4
27/08:30am 7.8 4.8 5.9 88 0.9 NNW 11 17 6 9 1023.8 - 0.4
27/08:00am 6.9 3.8 5.4 90 0.7 NW 11 15 6 8 1023.9 1024.4 0.4
27/07:30am 6.6 3.5 5.4 92 0.5 NNW 11 17 6 9 1023.7 - 0.4
27/07:00am 5.5 2.6 4.6 94 0.4 NNW 9 13 5 7 1023.7 1024.1 0.4
27/06:30am 5.5 2.6 4.8 95 0.3 NNW 9 13 5 7 1023.5 - 0.4
27/06:00am 4.7 1.7 4.0 95 0.3 N 9 13 5 7 1023.7 1024.1 0.4
27/05:30am 5.0 2.0 4.1 94 0.4 NNW 9 13 5 7 1023.8 - 0.4
27/05:00am 5.1 2.2 4.5 96 0.3 NNW 9 11 5 6 1024.0 1024.5 0.4
27/04:30am 4.6 1.6 4.2 97 0.2 N 9 11 5 6 1023.9 - 0.4
27/04:00am 4.9 1.9 4.3 96 0.3 NNW 9 11 5 6 1024.2 1024.7 0.2
27/03:30am 4.8 1.4 4.2 96 0.3 N 11 13 6 7 1024.2 - 0.2
27/03:00am 5.0 2.1 4.4 96 0.3 N 9 11 5 6 1024.5 1025.0 0.2
27/02:30am 5.0 2.4 4.0 93 0.4 NNW 7 11 4 6 1024.6 - 0.2
27/02:00am 6.4 3.6 5.0 91 0.6 NW 9 13 5 7 1024.7 1025.2 0.2
27/01:30am 6.6 3.4 5.2 91 0.6 NW 11 15 6 8 1024.9 - 0.2
27/01:00am 6.2 3.0 5.0 92 0.5 NNW 11 17 6 9 1025.0 1025.4 0.2
27/12:30am 5.8 2.9 4.8 93 0.4 NNW 9 13 5 7 1025.3 - 0.2
27/12:00am 6.5 3.7 5.1 91 0.6 NNW 9 15 5 8 1025.5 1025.9 0.2
 
Date/Time
EST
Tmp

°C
App
Tmp
°C
Dew
Point
°C
Rel
Hum
%
Delta-T

°C
Wind Press
QNH
hPa
Press
MSL
hPa
Rain
since
9 am
mm
Dir
 
Spd
km/h
Gust
km/h
Spd
kts
Gust
kts
26/11:30pm 7.3 3.8 5.4 88 0.9 NW 13 19 7 10 1025.6 - 0.2
26/11:00pm 7.2 4.8 5.2 87 0.9 NNW 7 11 4 6 1025.5 1025.9 0.2
26/10:30pm 8.5 5.5 5.8 83 1.2 WNW 11 19 6 10 1025.7 - 0.2
26/10:00pm 8.8 4.7 6.3 84 1.2 WNW 17 22 9 12 1025.7 1026.1 0.2
26/09:30pm 9.1 5.1 6.7 85 1.1 WNW 17 20 9 11 1025.4 - 0.2
26/09:00pm 9.1 5.5 6.9 86 1.0 WNW 15 22 8 12 1025.5 1025.9 0.2

Latest Capital City Observations: Canberra | Sydney | Melbourne | Brisbane | Adelaide | Perth | Hobart | Darwin

Other Formats:

Comma delimited format used in spreadsheet applications
http://www.bom.gov.au/fwo/IDV60901/IDV60901.94863.axf

JavaScript Object Notation format (JSON) in row-major order
http://www.bom.gov.au/fwo/IDV60901/IDV60901.94863.json